Time;durP1;ratioP1;P1;durP2;ratioP2;P2;SDS_P1;SDS_P2;PMS_P1;PMS_P2;Temp;Humidity;BMP_temperature;BMP_pressure;BME280_temperature;BME280_humidity;BME280_pressure;Samples;Min_cycle;Max_cycle;Signal;HPM_P1;HPM_P2
2022/04/25 00:01:36;;;;;;;;;16.00;13.60;;;;;10.64;60.19;99037.16;5097130;28;8895;-61
2022/04/25 00:04:04;;;;;;;;;17.20;15.00;;;;;10.66;59.96;99044.97;5097276;28;8873;-62
2022/04/25 00:06:32;;;;;;;;;15.00;12.80;;;;;10.70;59.95;99046.38;5097162;28;8864;-62
2022/04/25 00:09:00;;;;;;;;;14.00;12.50;;;;;10.73;59.77;99040.75;5097053;28;8854;-62
2022/04/25 00:11:28;;;;;;;;;9.00;6.00;;;;;10.76;59.88;99048.47;5097099;28;8860;-62
2022/04/25 00:13:56;;;;;;;;;15.75;13.00;;;;;10.79;59.96;99041.03;5097369;28;8881;-62
2022/04/25 00:16:24;;;;;;;;;13.75;12.75;;;;;10.84;60.04;99043.25;5097398;28;8842;-61
2022/04/25 00:18:51;;;;;;;;;11.50;10.00;;;;;10.85;60.21;99040.41;5096954;28;9369;-61
2022/04/25 00:21:19;;;;;;;;;14.00;14.00;;;;;10.86;60.57;99047.41;5095815;28;8822;-61
2022/04/25 00:23:47;;;;;;;;;20.50;14.50;;;;;10.87;60.55;99046.44;5096992;28;8835;-62
2022/04/25 00:26:15;;;;;;;;;13.00;13.00;;;;;10.90;61.16;99045.28;5096751;28;8830;-62
2022/04/25 00:28:42;;;;;;;;;13.25;12.50;;;;;10.90;60.98;99048.81;5097001;28;8838;-61
2022/04/25 00:31:10;;;;;;;;;16.00;15.25;;;;;10.91;61.07;99050.50;5096726;28;8880;-61
2022/04/25 00:33:38;;;;;;;;;12.00;10.50;;;;;10.91;61.21;99042.50;5097034;28;8984;-61
2022/04/25 00:36:06;;;;;;;;;14.00;14.00;;;;;10.91;61.29;99049.66;5096864;28;9531;-61
2022/04/25 00:38:34;;;;;;;;;12.25;12.25;;;;;10.90;61.26;99054.13;5097092;28;8966;-61
2022/04/25 00:41:01;;;;;;;;;12.25;10.50;;;;;10.87;61.44;99050.94;5096730;28;8846;-61
2022/04/25 00:43:29;;;;;;;;;11.00;10.00;;;;;10.86;61.59;99051.91;5096494;28;8838;-61
2022/04/25 00:45:57;;;;;;;;;12.75;11.00;;;;;10.86;62.15;99066.06;5096471;28;8849;-61
2022/04/25 00:48:25;;;;;;;;;10.80;9.60;;;;;10.85;62.49;99061.72;5096070;28;8848;-62
2022/04/25 00:50:52;;;;;;;;;10.00;9.80;;;;;10.84;62.18;99065.38;5096366;28;8830;-62
2022/04/25 00:53:20;;;;;;;;;10.00;10.00;;;;;10.83;62.15;99066.34;5095645;28;8830;-62
2022/04/25 00:55:48;;;;;;;;;10.40;10.00;;;;;10.82;62.18;99071.81;5096368;28;8850;-61
2022/04/25 00:58:16;;;;;;;;;10.50;10.50;;;;;10.80;62.47;99074.66;5096422;28;8834;-61
2022/04/25 01:00:44;;;;;;;;;7.00;7.00;;;;;10.80;62.66;99068.47;5096069;28;8989;-62
2022/04/25 01:03:13;;;;;;;;;13.50;11.50;;;;;10.77;62.47;99074.91;5096399;28;8889;-61
2022/04/25 01:05:41;;;;;;;;;11.60;10.00;;;;;10.76;62.96;99073.25;5096665;28;8854;-62
2022/04/25 01:08:09;;;;;;;;;9.60;9.00;;;;;10.73;62.72;99083.34;5095901;28;8826;-62
2022/04/25 01:10:36;;;;;;;;;6.40;6.00;;;;;10.66;62.36;99076.91;5083506;28;8856;-62
2022/04/25 01:13:04;;;;;;;;;12.50;11.00;;;;;10.60;62.57;99088.13;5075910;28;8844;-61
2022/04/25 01:15:31;;;;;;;;;11.50;11.00;;;;;10.52;62.97;99086.19;5075707;28;8848;-61
2022/04/25 01:18:02;;;;;;;;;9.75;9.25;;;;;10.46;63.13;99078.78;5075933;28;8846;-62
2022/04/25 01:20:29;;;;;;;;;13.40;11.60;;;;;10.43;63.26;99088.88;5075453;28;8820;-61
2022/04/25 01:22:57;;;;;;;;;12.80;11.60;;;;;10.38;63.69;99091.94;5075686;28;8836;-61
2022/04/25 01:28:10;;;;;;;;;11.00;9.20;;;;;10.04;64.73;99085.41;5076012;28;8852;-60
2022/04/25 01:30:38;;;;;;;;;6.40;6.20;;;;;9.86;65.01;99089.69;5075158;28;8824;-61
2022/04/25 01:33:06;;;;;;;;;7.00;7.00;;;;;9.73;65.37;99094.41;5075803;28;8855;-61
2022/04/25 01:35:33;;;;;;;;;1.00;1.00;;;;;9.59;65.54;99089.50;5075732;28;8839;-61
2022/04/25 01:38:01;;;;;;;;;4.00;4.00;;;;;9.45;65.84;99091.69;5075535;28;8857;-61
2022/04/25 01:40:28;;;;;;;;;8.40;7.00;;;;;9.34;66.04;99079.34;5075912;28;8894;-61
2022/04/25 01:42:56;;;;;;;;;3.00;3.00;;;;;9.24;66.26;99086.47;5075106;28;8851;-61
2022/04/25 01:45:24;;;;;;;;;5.20;3.80;;;;;9.21;66.13;99084.09;5075658;28;8870;-61
2022/04/25 01:47:52;;;;;;;;;7.40;6.40;;;;;9.15;66.22;99079.31;5075089;28;8828;-60
2022/04/25 01:50:20;;;;;;;;;7.00;6.80;;;;;9.13;65.97;99086.56;5075614;28;8837;-61
2022/04/25 01:52:47;;;;;;;;;7.40;7.40;;;;;9.12;66.14;99084.88;5075903;28;8855;-61
2022/04/25 01:55:15;;;;;;;;;5.60;5.20;;;;;9.11;66.11;99093.81;5075266;28;8832;-60
2022/04/25 01:57:43;;;;;;;;;11.60;11.60;;;;;9.13;65.93;99091.03;5075398;28;8832;-60
2022/04/25 02:00:11;;;;;;;;;7.00;7.00;;;;;9.09;65.66;99094.94;5074906;28;8848;-61
2022/04/25 02:02:38;;;;;;;;;6.00;4.20;;;;;9.02;66.38;99091.97;5074103;28;8913;-61
2022/04/25 02:05:07;;;;;;;;;10.00;9.20;;;;;8.93;66.44;99098.09;5074601;28;8856;-61
2022/04/25 02:07:35;;;;;;;;;7.40;6.80;;;;;8.86;66.85;99094.28;5074442;28;8848;-61
2022/04/25 02:10:02;;;;;;;;;5.20;5.20;;;;;8.80;67.22;99102.75;5074496;28;8907;-61
2022/04/25 02:12:30;;;;;;;;;5.20;3.80;;;;;8.77;66.15;99095.06;5073938;28;8836;-61
2022/04/25 02:14:57;;;;;;;;;6.20;4.60;;;;;8.75;66.85;99094.34;5074025;28;8852;-61
2022/04/25 02:17:25;;;;;;;;;8.20;8.20;;;;;8.76;66.83;99097.84;5075665;28;8840;-61
2022/04/25 02:19:53;;;;;;;;;8.20;6.60;;;;;8.75;66.43;99107.63;5074881;28;8852;-61
2022/04/25 02:22:21;;;;;;;;;11.40;9.20;;;;;8.75;66.51;99097.00;5073490;28;8816;-61
2022/04/25 02:24:48;;;;;;;;;9.40;8.20;;;;;8.73;66.64;99103.44;5078863;28;9616;-61
2022/04/25 02:27:16;;;;;;;;;10.40;9.60;;;;;8.71;66.68;99105.34;5078847;28;9518;-61
2022/04/25 02:29:46;;;;;;;;;6.60;4.00;;;;;8.70;66.26;99095.72;5078865;28;8828;-62
2022/04/25 02:32:14;;;;;;;;;10.00;10.00;;;;;8.69;66.86;99096.69;5078805;28;8836;-61
2022/04/25 02:34:42;;;;;;;;;9.00;7.80;;;;;8.67;66.79;99103.94;5078535;28;8837;-61
2022/04/25 02:37:10;;;;;;;;;9.00;7.00;;;;;8.67;66.89;99093.34;5078426;28;8982;-61
2022/04/25 02:39:38;;;;;;;;;7.00;6.60;;;;;8.65;66.46;99092.63;5078594;28;8866;-61
2022/04/25 02:42:05;;;;;;;;;6.20;6.20;;;;;8.65;66.65;99089.97;5078540;28;8836;-61
2022/04/25 02:47:15;;;;;;;;;7.40;7.40;;;;;8.70;66.32;99093.91;5077432;28;8859;-61
2022/04/25 02:49:42;;;;;;;;;8.60;6.00;;;;;8.74;66.25;99091.84;5078180;28;8882;-61
2022/04/25 02:52:10;;;;;;;;;9.20;9.00;;;;;8.77;66.05;99088.91;5078159;28;8850;-62
2022/04/25 02:54:38;;;;;;;;;10.20;8.20;;;;;8.79;66.24;99082.50;5078288;28;8844;-60
2022/04/25 02:57:06;;;;;;;;;10.00;9.80;;;;;8.79;65.82;99081.66;5078210;28;8837;-62
2022/04/25 02:59:34;;;;;;;;;7.80;6.80;;;;;8.79;66.28;99077.19;5078216;28;8832;-62
2022/04/25 03:02:01;;;;;;;;;6.00;6.00;;;;;8.78;66.19;99072.00;5078477;28;8836;-61
2022/04/25 03:04:29;;;;;;;;;6.60;6.60;;;;;8.77;65.95;99073.84;5078435;28;9603;-62
2022/04/25 03:06:57;;;;;;;;;7.80;7.00;;;;;8.78;65.91;99066.69;5078280;28;8933;-62
2022/04/25 03:09:26;;;;;;;;;7.00;6.00;;;;;8.78;66.31;99062.25;5080162;28;8841;-61
2022/04/25 03:11:54;;;;;;;;;8.20;7.60;;;;;8.79;65.81;99060.41;5098528;28;8846;-61
2022/04/25 03:14:22;;;;;;;;;9.80;9.00;;;;;8.77;66.15;99060.56;5097058;28;8838;-61
2022/04/25 03:16:50;;;;;;;;;9.80;8.60;;;;;8.76;65.97;99056.25;5098532;28;8848;-61
2022/04/25 03:19:17;;;;;;;;;11.60;9.80;;;;;8.72;65.75;99049.50;5098082;28;8840;-61
2022/04/25 03:21:45;;;;;;;;;8.20;8.20;;;;;8.71;65.67;99052.28;5098558;28;8880;-61
2022/04/25 03:24:13;;;;;;;;;12.00;9.80;;;;;8.69;66.10;99055.09;5097908;28;8880;-62
2022/04/25 03:26:40;;;;;;;;;7.80;5.60;;;;;8.68;65.99;99057.84;5098528;28;8830;-61
2022/04/25 03:29:08;;;;;;;;;8.60;7.40;;;;;8.65;65.94;99058.13;5098249;28;8850;-61
2022/04/25 03:31:36;;;;;;;;;6.60;6.20;;;;;8.64;66.20;99048.47;5098214;28;8840;-61
2022/04/25 03:34:04;;;;;;;;;6.20;6.00;;;;;8.67;65.99;99046.38;5098152;28;8846;-61
2022/04/25 03:36:32;;;;;;;;;9.60;8.20;;;;;8.72;66.16;99040.69;5097866;28;8858;-66
2022/04/25 03:39:00;;;;;;;;;10.40;10.40;;;;;8.77;65.98;99041.13;5097947;28;8885;-62
2022/04/25 03:41:31;;;;;;;;;12.20;9.00;;;;;8.80;65.92;99039.06;5098194;28;8833;-61
2022/04/25 03:43:58;;;;;;;;;8.60;7.00;;;;;8.80;66.42;99031.09;5097905;28;8853;-61
2022/04/25 03:46:27;;;;;;;;;12.00;10.40;;;;;8.80;66.21;99036.41;5097847;28;8903;-61
2022/04/25 03:48:55;;;;;;;;;7.60;7.40;;;;;8.80;65.86;99032.91;5097651;28;8830;-61
2022/04/25 03:51:23;;;;;;;;;9.00;9.00;;;;;8.78;65.71;99034.84;5096965;28;8834;-61
2022/04/25 03:53:50;;;;;;;;;6.60;6.20;;;;;8.78;65.92;99041.00;5097406;28;8952;-62
2022/04/25 03:59:04;;;;;;;;;11.20;10.00;;;;;8.83;66.22;99038.78;5097060;28;8870;-62
2022/04/25 04:01:32;;;;;;;;;9.60;6.80;;;;;8.81;66.40;99038.06;5096909;28;8934;-62
2022/04/25 04:04:04;;;;;;;;;7.00;7.00;;;;;8.77;66.15;99038.47;5097446;28;9515;-62
2022/04/25 04:06:32;;;;;;;;;9.80;8.00;;;;;8.73;66.71;99039.75;5097581;28;8964;-62
2022/04/25 04:09:44;;;;;;;;;15.80;11.00;;;;;8.73;66.55;99042.38;5094997;28;8846;-62
2022/04/25 04:11:48;;;;;;;;;9.00;8.60;;;;;8.67;66.51;99042.91;5096164;28;8860;-61
2022/04/25 04:14:15;;;;;;;;;6.00;4.80;;;;;8.63;66.53;99041.47;5094669;28;8822;-62
2022/04/25 04:16:43;;;;;;;;;7.80;7.00;;;;;8.58;66.72;99036.56;5095309;28;8837;-62
2022/04/25 04:19:11;;;;;;;;;8.60;8.60;;;;;8.60;67.18;99044.41;5095000;28;8935;-62
2022/04/25 04:21:39;;;;;;;;;7.00;7.00;;;;;8.60;66.82;99045.22;5094399;28;8834;-62
2022/04/25 04:24:09;;;;;;;;;7.00;5.80;;;;;8.58;66.79;99043.72;5094944;28;8968;-63
2022/04/25 04:26:40;;;;;;;;;10.80;10.80;;;;;8.54;66.92;99040.47;5095169;28;8922;-62
2022/04/25 04:29:07;;;;;;;;;3.20;1.40;;;;;8.53;66.90;99041.41;5096497;28;8899;-62
2022/04/25 04:31:35;;;;;;;;;6.00;6.00;;;;;8.50;67.13;99047.00;5096393;28;8851;-62
2022/04/25 04:34:03;;;;;;;;;6.80;5.60;;;;;8.48;67.15;99048.09;5096125;28;8834;-62
2022/04/25 04:36:31;;;;;;;;;6.20;4.40;;;;;8.45;67.12;99059.00;5096569;28;8846;-61
2022/04/25 04:38:58;;;;;;;;;9.80;8.60;;;;;8.46;67.58;99058.00;5094788;28;8854;-61
2022/04/25 04:41:26;;;;;;;;;7.40;6.40;;;;;8.50;66.78;99060.28;5095885;28;8840;-61
2022/04/25 04:43:56;;;;;;;;;8.60;7.00;;;;;8.53;67.00;99065.31;5096141;28;9480;-61
2022/04/25 04:46:24;;;;;;;;;10.80;9.80;;;;;8.58;67.40;99064.94;5094972;28;8875;-61
2022/04/25 04:48:52;;;;;;;;;9.60;8.20;;;;;8.59;67.22;99064.78;5095861;28;8859;-62
2022/04/25 04:51:19;;;;;;;;;9.20;9.00;;;;;8.64;66.76;99077.66;5095532;28;8862;-62
2022/04/25 04:53:47;;;;;;;;;9.20;8.20;;;;;8.66;66.90;99073.91;5095038;28;8845;-62
2022/04/25 04:56:15;;;;;;;;;12.20;12.00;;;;;8.68;67.25;99077.25;5094220;28;8863;-62
2022/04/25 04:58:43;;;;;;;;;11.80;11.20;;;;;8.69;66.98;99078.13;5094469;28;8845;-62
2022/04/25 05:01:11;;;;;;;;;9.00;7.00;;;;;8.69;66.76;99086.06;5093659;28;8904;-61
2022/04/25 05:03:41;;;;;;;;;11.00;9.40;;;;;8.70;67.02;99093.06;5093180;28;8830;-61
2022/04/25 05:06:09;;;;;;;;;7.00;6.60;;;;;8.74;66.70;99099.81;5093604;28;8826;-62
2022/04/25 05:08:37;;;;;;;;;11.60;10.00;;;;;8.78;66.46;99091.44;5093207;28;8868;-62
2022/04/25 05:11:05;;;;;;;;;11.20;10.80;;;;;8.84;66.93;99098.03;5077030;28;9577;-61
2022/04/25 05:13:32;;;;;;;;;10.80;10.00;;;;;8.89;66.85;99101.97;5072097;28;8828;-62
2022/04/25 05:16:00;;;;;;;;;6.40;6.20;;;;;8.92;66.38;99104.38;5072492;28;8840;-62
2022/04/25 05:18:32;;;;;;;;;9.00;5.40;;;;;8.97;66.57;99109.28;5073035;28;8847;-62
2022/04/25 05:21:00;;;;;;;;;11.60;10.00;;;;;9.01;66.57;99113.34;5073933;28;8844;-62
2022/04/25 05:23:27;;;;;;;;;10.80;10.80;;;;;9.02;66.45;99121.19;5074490;28;8928;-61
2022/04/25 05:25:55;;;;;;;;;10.80;10.80;;;;;9.06;66.59;99125.28;5074417;28;8832;-61
2022/04/25 05:28:23;;;;;;;;;6.00;4.80;;;;;9.08;66.17;99125.97;5073861;28;9521;-61
2022/04/25 05:30:50;;;;;;;;;9.60;7.40;;;;;9.11;66.48;99136.31;5073502;28;8886;-62
2022/04/25 05:33:18;;;;;;;;;15.20;12.20;;;;;9.14;66.18;99133.41;5073196;28;8851;-62
2022/04/25 05:35:46;;;;;;;;;9.00;8.60;;;;;9.18;66.06;99137.47;5073183;28;9631;-62
2022/04/25 05:38:14;;;;;;;;;12.00;10.00;;;;;9.24;65.76;99144.91;5073094;28;8970;-62
2022/04/25 05:40:41;;;;;;;;;7.00;6.00;;;;;9.29;65.59;99145.34;5072101;28;8840;-62
2022/04/25 05:43:09;;;;;;;;;7.80;7.60;;;;;9.33;65.90;99146.75;5073985;28;8864;-62
2022/04/25 05:45:37;;;;;;;;;11.60;9.60;;;;;9.37;65.82;99153.50;5071849;28;8843;-62
2022/04/25 05:51:58;;;;;;;;;11.60;9.00;;;;;9.44;65.74;99156.44;5071819;28;8874;-62
2022/04/25 05:53:38;;;;;;;;;7.00;7.00;;;;;9.55;65.67;99165.16;5070120;28;8986;-61
2022/04/25 05:56:06;;;;;;;;;10.80;9.20;;;;;9.58;65.78;99159.56;5068645;28;8891;-62
2022/04/25 05:58:33;;;;;;;;;9.25;9.25;;;;;9.61;65.24;99164.63;5072013;28;8848;-62
2022/04/25 06:01:01;;;;;;;;;7.00;7.00;;;;;9.66;65.13;99169.53;5072843;28;8933;-62
2022/04/25 06:03:29;;;;;;;;;6.00;5.60;;;;;9.70;65.58;99166.47;5071880;28;8848;-62
2022/04/25 06:05:57;;;;;;;;;4.80;4.80;;;;;9.73;65.65;99166.19;5073955;28;8836;-62
2022/04/25 06:08:24;;;;;;;;;7.00;7.00;;;;;9.75;65.23;99164.25;5074391;28;8847;-62
2022/04/25 06:10:52;;;;;;;;;11.20;10.00;;;;;9.78;65.37;99171.13;5074491;28;8871;-62
2022/04/25 06:13:19;;;;;;;;;7.50;6.25;;;;;9.80;65.55;99177.97;5074220;28;9191;-62
2022/04/25 06:15:48;;;;;;;;;6.50;5.00;;;;;9.78;65.54;99174.59;5075420;28;8848;-61
2022/04/25 06:18:15;;;;;;;;;3.50;3.50;;;;;9.78;65.89;99179.09;5073583;28;9147;-61
2022/04/25 06:20:43;;;;;;;;;6.50;5.25;;;;;9.78;65.14;99181.75;5073845;28;8843;-61
2022/04/25 06:23:11;;;;;;;;;8.50;7.50;;;;;9.76;65.49;99181.03;5074480;28;8954;-62
2022/04/25 06:25:38;;;;;;;;;8.00;7.50;;;;;9.76;65.78;99189.88;5076345;28;8832;-62
2022/04/25 06:28:06;;;;;;;;;9.00;6.25;;;;;9.76;65.87;99187.19;5075556;28;8840;-61
2022/04/25 06:30:35;;;;;;;;;5.50;4.00;;;;;9.77;65.11;99188.88;5075802;28;8845;-61
2022/04/25 06:33:02;;;;;;;;;4.00;3.00;;;;;9.79;65.64;99192.25;5076145;28;8867;-61
2022/04/25 06:35:30;;;;;;;;;6.00;4.00;;;;;9.81;65.82;99190.28;5075418;28;8839;-61
2022/04/25 06:37:58;;;;;;;;;5.00;4.00;;;;;9.86;65.94;99198.69;5075401;28;8842;-61
2022/04/25 06:40:26;;;;;;;;;3.00;3.00;;;;;9.91;66.17;99193.81;5075201;28;8884;-61
2022/04/25 06:42:55;;;;;;;;;5.20;4.00;;;;;9.92;65.44;99187.53;5075984;28;8852;-61
2022/04/25 06:45:23;;;;;;;;;5.00;5.00;;;;;9.96;65.73;99198.72;5075575;28;8970;-61
2022/04/25 06:47:52;;;;;;;;;6.00;6.00;;;;;9.99;65.46;99191.31;5076038;28;8860;-61
2022/04/25 06:50:20;;;;;;;;;5.75;5.00;;;;;10.00;65.85;99194.81;5076165;28;8859;-62
2022/04/25 06:52:48;;;;;;;;;6.25;6.25;;;;;9.99;65.94;99201.09;5074897;28;8852;-63
2022/04/25 06:55:15;;;;;;;;;5.00;5.00;;;;;9.99;65.99;99206.41;5074364;28;8844;-61
2022/04/25 06:57:43;;;;;;;;;6.25;6.25;;;;;9.98;66.27;99210.91;5075122;28;8840;-62
2022/04/25 07:00:11;;;;;;;;;3.00;2.00;;;;;9.98;66.20;99208.25;5074006;28;8851;-62
2022/04/25 07:02:59;;;;;;;;;4.00;4.00;;;;;10.02;66.21;99208.81;5074372;28;8848;-61
2022/04/25 07:05:28;;;;;;;;;4.50;2.50;;;;;10.04;66.17;99205.09;5075015;28;8840;-62
2022/04/25 07:07:55;;;;;;;;;5.00;4.00;;;;;10.09;65.55;99210.00;5074166;28;8828;-61
2022/04/25 07:10:23;;;;;;;;;4.50;3.75;;;;;10.15;65.61;99212.09;5072899;28;8859;-62
2022/04/25 07:12:51;;;;;;;;;3.00;2.00;;;;;10.20;65.72;99213.38;5072688;28;8871;-61
2022/04/25 07:15:19;;;;;;;;;4.50;4.50;;;;;10.29;66.02;99215.22;5073723;28;8844;-61
2022/04/25 07:17:50;;;;;;;;;5.00;5.00;;;;;10.37;65.35;99219.81;5071772;28;8962;-62
2022/04/25 07:20:18;;;;;;;;;2.50;2.50;;;;;10.42;65.46;99217.59;5073576;28;8835;-61
2022/04/25 07:31:01;;;;;;;;;6.75;6.75;;;;;10.45;65.67;99234.13;5070088;28;8914;-62
2022/04/25 07:33:30;;;;;;;;;8.00;6.00;;;;;10.42;65.18;99237.09;5071064;28;8832;-62
2022/04/25 07:35:58;;;;;;;;;6.00;4.00;;;;;10.41;65.62;99232.72;5070418;28;8986;-63
2022/04/25 07:38:27;;;;;;;;;3.75;3.25;;;;;10.39;65.81;99237.34;5069214;28;8856;-61
2022/04/25 07:40:54;;;;;;;;;6.00;6.00;;;;;10.40;65.80;99244.34;5070530;28;8941;-62
2022/04/25 07:43:22;;;;;;;;;4.50;4.00;;;;;10.39;65.54;99240.00;5072994;28;9005;-62
2022/04/25 07:45:50;;;;;;;;;5.75;5.50;;;;;10.38;66.63;99240.97;5073235;28;8974;-61
2022/04/25 07:48:18;;;;;;;;;3.25;3.00;;;;;10.34;66.03;99242.25;5072260;28;8870;-62
2022/04/25 07:50:46;;;;;;;;;8.00;6.75;;;;;10.35;66.09;99249.25;5071240;28;8850;-62
2022/04/25 07:53:14;;;;;;;;;9.00;9.00;;;;;10.36;66.27;99250.06;5072608;28;8982;-62
2022/04/25 07:55:42;;;;;;;;;10.00;10.00;;;;;10.34;66.79;99252.91;5071345;28;8881;-62
2022/04/25 07:58:10;;;;;;;;;10.25;8.25;;;;;10.33;66.38;99242.38;5070644;28;8844;-63
2022/04/25 08:00:38;;;;;;;;;8.00;7.00;;;;;10.36;66.49;99255.41;5071874;28;8854;-62
2022/04/25 08:03:06;;;;;;;;;8.00;7.00;;;;;10.35;66.69;99251.91;5070804;28;9518;-62
2022/04/25 08:05:34;;;;;;;;;9.00;6.00;;;;;10.35;67.04;99254.59;5070119;28;8832;-61
2022/04/25 08:08:02;;;;;;;;;7.00;7.00;;;;;10.35;67.34;99264.38;5070681;28;8836;-61
2022/04/25 08:10:30;;;;;;;;;12.25;9.50;;;;;10.37;66.88;99259.75;5070833;28;8990;-63
2022/04/25 08:18:28;;;;;;;;;6.25;5.50;;;;;10.62;66.92;99257.41;5072972;28;9568;-62
2022/04/25 08:20:56;;;;;;;;;9.00;7.67;;;;;10.77;66.51;99265.84;5071222;28;8958;-61
2022/04/25 08:23:25;;;;;;;;;9.00;8.00;;;;;10.96;66.10;99260.47;5071104;28;8856;-62
2022/04/25 08:25:53;;;;;;;;;10.00;10.00;;;;;11.15;66.14;99266.63;5071306;28;9259;-61
2022/04/25 08:28:21;;;;;;;;;9.00;9.00;;;;;11.26;65.41;99274.50;5071003;28;8878;-64
2022/04/25 08:30:50;;;;;;;;;15.25;13.00;;;;;11.33;65.70;99270.28;5070751;28;9238;-61
2022/04/25 08:33:17;;;;;;;;;12.50;12.00;;;;;11.37;65.93;99270.84;5071323;28;8867;-61
2022/04/25 08:35:45;;;;;;;;;11.00;9.50;;;;;11.41;65.77;99269.53;5070835;28;8847;-62
2022/04/25 08:38:13;;;;;;;;;9.50;6.50;;;;;11.49;65.69;99275.00;5070254;28;8864;-62
2022/04/25 08:40:41;;;;;;;;;8.50;8.50;;;;;11.65;65.88;99285.94;5070549;28;9349;-62
2022/04/25 08:43:09;;;;;;;;;9.75;9.50;;;;;11.82;65.08;99272.69;5069622;28;8852;-62
2022/04/25 08:45:37;;;;;;;;;6.00;6.00;;;;;11.94;64.97;99282.19;5069886;28;8852;-61
2022/04/25 08:48:05;;;;;;;;;14.50;11.50;;;;;11.98;64.64;99280.06;5069945;28;8836;-62
2022/04/25 08:50:33;;;;;;;;;8.00;6.75;;;;;11.95;64.92;99289.19;5070247;28;8909;-62
2022/04/25 08:53:01;;;;;;;;;12.25;9.25;;;;;11.92;65.03;99286.84;5071887;28;8840;-61
2022/04/25 08:55:29;;;;;;;;;12.75;12.75;;;;;11.92;65.27;99284.16;5070964;28;8844;-62
2022/04/25 08:57:57;;;;;;;;;9.00;9.00;;;;;11.97;65.19;99287.22;5072873;28;8864;-62
2022/04/25 09:00:25;;;;;;;;;10.00;9.00;;;;;12.11;64.83;99292.06;5073037;28;8840;-62
2022/04/25 09:02:54;;;;;;;;;8.75;8.50;;;;;12.32;64.30;99290.00;5070868;28;8901;-62
2022/04/25 09:05:23;;;;;;;;;5.00;3.75;;;;;12.42;63.73;99301.47;5071498;28;8832;-62
2022/04/25 09:07:51;;;;;;;;;10.50;9.75;;;;;12.43;64.26;99305.81;5072972;28;8843;-63
2022/04/25 09:10:18;;;;;;;;;9.00;9.00;;;;;12.36;63.97;99299.38;5072457;28;8899;-63
2022/04/25 09:12:46;;;;;;;;;10.00;9.75;;;;;12.24;64.62;99305.94;5072991;28;8862;-62
2022/04/25 09:15:18;;;;;;;;;12.00;10.50;;;;;12.16;64.87;99308.50;5072010;28;8828;-62
2022/04/25 09:17:53;;;;;;;;;12.00;10.00;;;;;12.13;64.98;99308.78;5070086;28;8999;-62
2022/04/25 09:20:22;;;;;;;;;13.00;9.50;;;;;12.13;64.54;99308.78;5070678;28;8995;-62
2022/04/25 09:22:50;;;;;;;;;11.50;10.50;;;;;12.14;65.08;99321.97;5071076;28;8832;-62
2022/04/25 09:25:17;;;;;;;;;12.50;10.00;;;;;12.16;64.97;99316.50;5070152;28;8836;-62
2022/04/25 09:28:05;;;;;;;;;7.00;7.00;;;;;12.26;64.72;99319.97;5071465;28;8860;-62
2022/04/25 09:30:33;;;;;;;;;14.50;13.50;;;;;12.35;64.19;99324.41;5071268;28;8945;-61
2022/04/25 09:33:01;;;;;;;;;7.00;5.50;;;;;12.44;64.18;99321.69;5076090;28;8852;-62
2022/04/25 09:35:29;;;;;;;;;11.50;9.75;;;;;12.57;63.97;99324.00;5074531;28;9018;-62
2022/04/25 09:37:56;;;;;;;;;13.50;12.00;;;;;12.77;63.32;99322.91;5074741;28;8875;-62
2022/04/25 09:40:24;;;;;;;;;10.00;10.00;;;;;12.98;62.91;99318.16;5074440;28;8867;-64
2022/04/25 09:42:52;;;;;;;;;5.50;5.50;;;;;13.30;62.79;99318.44;5074143;28;8856;-61
2022/04/25 09:45:20;;;;;;;;;9.00;7.00;;;;;13.70;61.87;99316.06;5075979;28;9567;-62
2022/04/25 09:47:50;;;;;;;;;12.75;10.50;;;;;14.28;60.49;99298.34;5076684;28;8897;-62
2022/04/25 09:50:17;;;;;;;;;14.00;12.50;;;;;14.75;59.32;99299.50;5075749;28;8848;-62
2022/04/25 09:53:06;;;;;;;;;11.50;10.00;;;;;14.91;59.38;99304.91;5076824;28;8986;-62
2022/04/25 09:55:34;;;;;;;;;14.00;12.25;;;;;14.88;59.66;99303.38;5076162;28;9229;-62
2022/04/25 09:58:01;;;;;;;;;7.00;6.75;;;;;14.84;59.58;99309.25;5075413;28;9499;-62
2022/04/25 10:00:30;;;;;;;;;11.50;10.00;;;;;14.79;59.75;99306.25;5074994;28;9006;-63
2022/04/25 10:02:57;;;;;;;;;10.25;8.00;;;;;14.66;59.81;99311.22;5073186;28;8832;-63
2022/04/25 10:05:25;;;;;;;;;9.75;8.00;;;;;14.53;60.75;99311.69;5067334;28;9163;-62
2022/04/25 10:07:58;;;;;;;;;6.00;6.00;;;;;14.39;60.68;99319.47;5072330;28;8856;-62
2022/04/25 10:10:26;;;;;;;;;6.75;6.75;;;;;14.26;61.06;99316.44;5072378;28;8880;-63
2022/04/25 10:12:55;;;;;;;;;9.50;9.50;;;;;14.12;61.23;99330.38;5070513;28;8928;-63
2022/04/25 10:15:23;;;;;;;;;7.50;7.50;;;;;13.94;61.43;99329.59;5070888;28;8848;-62
2022/04/25 10:17:51;;;;;;;;;6.00;5.25;;;;;13.80;61.73;99332.84;5070156;28;9238;-62
2022/04/25 10:20:18;;;;;;;;;8.50;8.00;;;;;13.66;62.53;99333.44;5069519;28;8921;-63
2022/04/25 10:22:46;;;;;;;;;15.00;12.25;;;;;13.52;62.67;99336.69;5070940;28;8893;-62
2022/04/25 10:25:17;;;;;;;;;8.75;7.50;;;;;13.41;62.68;99340.44;5071181;28;8922;-65
2022/04/25 10:27:45;;;;;;;;;12.00;9.25;;;;;13.32;62.85;99343.19;5071765;28;8836;-63
2022/04/25 10:30:13;;;;;;;;;9.25;8.50;;;;;13.27;63.04;99342.78;5072903;28;8844;-62
2022/04/25 10:32:41;;;;;;;;;13.00;10.50;;;;;13.18;63.44;99341.91;5075221;28;9214;-62
2022/04/25 10:35:12;;;;;;;;;5.50;5.50;;;;;13.13;63.42;99344.19;5074862;28;8925;-64
2022/04/25 10:37:41;;;;;;;;;11.00;10.50;;;;;13.11;63.02;99345.31;5074432;28;8860;-62
2022/04/25 10:40:08;;;;;;;;;11.50;9.00;;;;;13.14;62.70;99345.84;5073718;28;9530;-61
2022/04/25 10:45:21;;;;;;;;;11.00;9.50;;;;;13.31;62.76;99338.84;5073754;28;8844;-62
2022/04/25 10:47:49;;;;;;;;;11.50;10.75;;;;;13.42;62.18;99342.09;5073262;28;8832;-63
2022/04/25 10:50:17;;;;;;;;;9.50;8.50;;;;;13.53;61.98;99338.34;5072686;28;8866;-61
2022/04/25 10:52:51;;;;;;;;;12.75;12.00;;;;;13.63;61.88;99341.75;5071715;28;8990;-62
2022/04/25 10:55:21;;;;;;;;;12.25;11.75;;;;;13.71;61.36;99336.47;5073011;28;9646;-62
2022/04/25 10:57:49;;;;;;;;;12.50;11.50;;;;;13.76;61.57;99347.56;5074161;28;8858;-61
2022/04/25 11:00:20;;;;;;;;;11.50;9.75;;;;;13.73;61.18;99347.88;5074137;28;8856;-62
2022/04/25 11:02:47;;;;;;;;;12.00;12.00;;;;;13.70;61.73;99354.38;5073606;28;8968;-62
2022/04/25 11:05:15;;;;;;;;;9.25;8.00;;;;;13.68;61.33;99344.81;5075068;28;8832;-62
2022/04/25 11:07:44;;;;;;;;;12.00;12.00;;;;;13.64;61.66;99346.13;5072109;28;8855;-61
2022/04/25 11:10:12;;;;;;;;;15.00;12.25;;;;;13.55;62.28;99350.59;5073936;28;8872;-64
2022/04/25 11:12:39;;;;;;;;;7.50;3.75;;;;;13.45;62.10;99359.69;5073867;28;8881;-63
2022/04/25 11:15:07;;;;;;;;;10.50;10.00;;;;;13.36;61.81;99358.75;5073547;28;8856;-61
2022/04/25 11:17:35;;;;;;;;;12.25;9.50;;;;;13.36;62.22;99350.75;5073915;28;9006;-62
2022/04/25 11:20:06;;;;;;;;;13.00;13.00;;;;;13.37;62.35;99352.41;5074164;28;8860;-62
2022/04/25 11:22:34;;;;;;;;;12.00;10.50;;;;;13.43;61.97;99367.03;5074091;28;8855;-62
2022/04/25 11:25:01;;;;;;;;;12.25;10.50;;;;;13.50;62.20;99363.56;5074611;28;8850;-63
2022/04/25 11:27:30;;;;;;;;;17.00;14.00;;;;;13.59;62.12;99362.63;5074314;28;8839;-61
2022/04/25 11:29:58;;;;;;;;;15.00;12.50;;;;;13.66;61.94;99362.88;5074739;28;8844;-62
2022/04/25 11:32:26;;;;;;;;;13.00;12.25;;;;;13.67;61.54;99364.56;5074067;28;8860;-62
2022/04/25 11:34:53;;;;;;;;;13.00;11.00;;;;;13.65;61.96;99377.22;5072921;28;8978;-62
2022/04/25 11:37:22;;;;;;;;;10.50;8.00;;;;;13.65;62.32;99371.88;5073465;28;8832;-63
2022/04/25 11:39:52;;;;;;;;;12.50;12.00;;;;;13.61;62.17;99381.22;5071939;28;8880;-61
2022/04/25 11:42:20;;;;;;;;;6.50;4.00;;;;;13.57;62.21;99379.84;5071846;28;8856;-62
2022/04/25 11:44:48;;;;;;;;;10.00;10.00;;;;;13.52;62.36;99388.31;5072664;28;9555;-63
2022/04/25 11:47:17;;;;;;;;;13.50;12.25;;;;;13.48;62.18;99381.63;5071340;28;8870;-61
2022/04/25 11:49:45;;;;;;;;;10.50;10.00;;;;;13.45;62.15;99386.44;5072002;28;8868;-61
2022/04/25 11:52:13;;;;;;;;;14.00;12.25;;;;;13.44;62.34;99390.09;5073128;28;8861;-62
2022/04/25 11:54:40;;;;;;;;;14.50;14.50;;;;;13.43;62.64;99386.56;5073219;28;8844;-62
2022/04/25 11:57:08;;;;;;;;;13.00;12.50;;;;;13.43;62.07;99385.75;5071202;28;8840;-63
2022/04/25 11:59:36;;;;;;;;;11.50;9.00;;;;;13.46;62.83;99388.97;5067072;28;9498;-61
2022/04/25 12:02:03;;;;;;;;;11.50;10.00;;;;;13.55;62.43;99390.72;5072259;28;8851;-61
2022/04/25 12:04:32;;;;;;;;;14.00;11.75;;;;;13.64;62.48;99397.81;5072297;28;9555;-62
2022/04/25 12:07:00;;;;;;;;;12.50;11.00;;;;;13.64;62.63;99396.94;5073173;28;8840;-64
2022/04/25 12:17:59;;;;;;;;;6.00;6.00;;;;;13.07;63.89;99408.94;5047306;28;8874;-62
2022/04/25 12:20:28;;;;;;;;;9.00;8.50;;;;;13.00;64.15;99407.03;5072953;28;8840;-62